Time,TemperatureF,DewpointF,PressureIn,WindDirection,WindDirectionDegrees,WindSpeedMPH,WindSpeedGustMPH,Humidity,HourlyPrecipIn,Conditions,Clouds,dailyrainin,SoftwareType,DateUTC
2013-06-18 00:05:00,74.1,23.5,30.06,NNW,331,0.0,5.0,15,0.00,,,0.00,Wunderground v.1.15,2013-06-18 07:05:00,
2013-06-18 00:15:00,73.9,26.3,30.06,NNW,331,0.0,4.0,17,0.00,,,0.00,Wunderground v.1.15,2013-06-18 07:15:00,
2013-06-18 00:20:00,74.1,29.2,30.06,NNW,331,0.0,4.0,19,0.00,,,0.00,Wunderground v.1.15,2013-06-18 07:20:00,
2013-06-18 00:30:00,73.9,29.0,30.06,NNW,331,0.0,4.0,19,0.00,,,0.00,Wunderground v.1.15,2013-06-18 07:30:00,
2013-06-18 00:35:00,73.4,25.9,30.06,NNW,331,0.0,4.0,17,0.00,,,0.00,Wunderground v.1.15,2013-06-18 07:35:00,
2013-06-18 00:45:00,72.9,28.2,30.06,NNW,331,0.0,0.0,19,0.00,,,0.00,Wunderground v.1.15,2013-06-18 07:45:00,
2013-06-18 00:50:00,72.8,25.4,30.06,NNW,331,0.0,0.0,17,0.00,,,0.00,Wunderground v.1.15,2013-06-18 07:50:00,
2013-06-18 01:00:00,71.6,25.8,30.05,NNW,331,0.0,0.0,18,0.00,,,0.00,Wunderground v.1.15,2013-06-18 08:00:00,
2013-06-18 01:05:00,71.6,25.8,30.06,NNW,331,0.0,0.0,18,0.00,,,0.00,Wunderground v.1.15,2013-06-18 08:05:00,
2013-06-18 01:15:00,70.7,25.1,30.05,NNW,331,0.0,0.0,18,0.00,,,0.00,Wunderground v.1.15,2013-06-18 08:15:00,
2013-06-18 01:20:00,69.8,24.3,30.05,NNW,331,0.0,0.0,18,0.00,,,0.00,Wunderground v.1.15,2013-06-18 08:20:00,
2013-06-18 01:30:00,69.0,23.7,30.05,NNW,331,0.0,0.0,18,0.00,,,0.00,Wunderground v.1.15,2013-06-18 08:30:00,
2013-06-18 01:35:00,68.0,24.2,30.05,NNW,331,0.0,0.0,19,0.00,,,0.00,Wunderground v.1.15,2013-06-18 08:35:00,
2013-06-18 01:40:00,67.5,25.0,30.05,NNW,331,0.0,0.0,20,0.00,,,0.00,Wunderground v.1.15,2013-06-18 08:40:00,
2013-06-18 01:45:00,67.4,26.1,30.05,NNW,331,0.0,0.0,21,0.00,,,0.00,Wunderground v.1.15,2013-06-18 08:45:00,
2013-06-18 01:55:00,67.4,26.1,30.05,NNW,331,0.0,0.0,21,0.00,,,0.00,Wunderground v.1.15,2013-06-18 08:55:00,
2013-06-18 02:00:00,67.1,25.8,30.05,NNW,331,0.0,0.0,21,0.00,,,0.00,Wunderground v.1.15,2013-06-18 09:00:00,
2013-06-18 02:05:00,67.0,26.9,30.04,NNW,331,0.0,0.0,22,0.00,,,0.00,Wunderground v.1.15,2013-06-18 09:05:00,
2013-06-18 02:15:00,66.4,26.4,30.04,NNW,331,0.0,0.0,22,0.00,,,0.00,Wunderground v.1.15,2013-06-18 09:15:00,
2013-06-18 02:20:00,66.0,26.0,30.04,NNW,331,0.0,0.0,22,0.00,,,0.00,Wunderground v.1.15,2013-06-18 09:20:00,
2013-06-18 02:30:00,65.4,27.6,30.04,NNW,331,0.0,0.0,24,0.00,,,0.00,Wunderground v.1.15,2013-06-18 09:30:00,
2013-06-18 02:35:00,65.5,26.7,30.04,NNW,331,0.0,3.0,23,0.00,,,0.00,Wunderground v.1.15,2013-06-18 09:35:00,
2013-06-18 02:45:00,65.0,26.3,30.04,NNW,331,0.0,3.0,23,0.00,,,0.00,Wunderground v.1.15,2013-06-18 09:45:00,
2013-06-18 02:50:00,64.8,27.1,30.04,NNW,331,1.0,3.0,24,0.00,,,0.00,Wunderground v.1.15,2013-06-18 09:50:00,
2013-06-18 03:00:00,64.6,27.0,30.04,NNW,331,1.0,1.0,24,0.00,,,0.00,Wunderground v.1.15,2013-06-18 10:00:00,
2013-06-18 03:05:00,64.5,26.9,30.04,NNW,331,0.0,4.0,24,0.00,,,0.00,Wunderground v.1.15,2013-06-18 10:05:00,
2013-06-18 03:15:00,65.0,27.3,30.04,NNW,331,0.0,4.0,24,0.00,,,0.00,Wunderground v.1.15,2013-06-18 10:15:00,
2013-06-18 03:20:00,65.0,27.3,30.03,NNW,331,0.0,4.0,24,0.00,,,0.00,Wunderground v.1.15,2013-06-18 10:20:00,
2013-06-18 03:25:00,65.1,26.3,30.04,NNW,331,0.0,4.0,23,0.00,,,0.00,Wunderground v.1.15,2013-06-18 10:25:00,
2013-06-18 03:30:00,64.8,25.0,30.04,NNW,331,0.0,4.0,22,0.00,,,0.00,Wunderground v.1.15,2013-06-18 10:30:00,
2013-06-18 03:35:00,64.3,25.7,30.04,NNW,331,0.0,4.0,23,0.00,,,0.00,Wunderground v.1.15,2013-06-18 10:35:00,
2013-06-18 03:45:00,63.3,21.5,30.04,NNW,331,1.0,4.0,20,0.00,,,0.00,Wunderground v.1.15,2013-06-18 10:45:00,
2013-06-18 03:55:00,63.1,21.3,30.04,NNW,331,0.0,4.0,20,0.00,,,0.00,Wunderground v.1.15,2013-06-18 10:55:00,
2013-06-18 04:00:00,63.7,23.0,30.04,NNW,331,0.0,4.0,21,0.00,,,0.00,Wunderground v.1.15,2013-06-18 11:00:00,
2013-06-18 04:05:00,63.8,23.1,30.04,NNW,331,0.0,4.0,21,0.00,,,0.00,Wunderground v.1.15,2013-06-18 11:05:00,
2013-06-18 04:10:00,63.7,20.6,30.04,NNW,331,0.0,4.0,19,0.00,,,0.00,Wunderground v.1.15,2013-06-18 11:10:00,
2013-06-18 04:20:00,64.1,22.2,30.04,NNW,331,1.0,1.0,20,0.00,,,0.00,Wunderground v.1.15,2013-06-18 11:20:00,
2013-06-18 04:25:00,64.1,20.9,30.04,NNW,331,0.0,4.0,19,0.00,,,0.00,Wunderground v.1.15,2013-06-18 11:25:00,
2013-06-18 04:30:00,64.3,22.3,30.04,NNW,331,0.0,4.0,20,0.00,,,0.00,Wunderground v.1.15,2013-06-18 11:30:00,
2013-06-18 04:35:00,63.9,23.2,30.04,NNW,331,0.0,4.0,21,0.00,,,0.00,Wunderground v.1.15,2013-06-18 11:35:00,
2013-06-18 04:45:00,63.4,28.8,30.04,NNW,331,0.0,4.0,27,0.00,,,0.00,Wunderground v.1.15,2013-06-18 11:45:00,
2013-06-18 04:50:00,63.3,26.8,30.04,NNW,331,0.0,4.0,25,0.00,,,0.00,Wunderground v.1.15,2013-06-18 11:50:00,
2013-06-18 05:00:00,62.8,28.3,30.04,NNW,331,0.0,4.0,27,0.00,,,0.00,Wunderground v.1.15,2013-06-18 12:00:00,
2013-06-18 05:05:00,62.8,30.0,30.04,NNW,331,0.0,4.0,29,0.00,,,0.00,Wunderground v.1.15,2013-06-18 12:05:00,
2013-06-18 05:15:00,62.6,28.1,30.05,NNW,331,0.0,0.0,27,0.00,,,0.00,Wunderground v.1.15,2013-06-18 12:15:00,
2013-06-18 05:20:00,61.7,29.1,30.05,NNW,331,0.0,0.0,29,0.00,,,0.00,Wunderground v.1.15,2013-06-18 12:20:00,
2013-06-18 05:30:00,61.8,29.2,30.05,NNW,331,0.0,0.0,29,0.00,,,0.00,Wunderground v.1.15,2013-06-18 12:30:00,
2013-06-18 05:35:00,61.8,30.0,30.05,NNW,331,0.0,3.0,30,0.00,,,0.00,Wunderground v.1.15,2013-06-18 12:35:00,
2013-06-18 05:45:00,61.6,29.0,30.05,NNW,331,0.0,3.0,29,0.00,,,0.00,Wunderground v.1.15,2013-06-18 12:45:00,
2013-06-18 05:50:00,61.8,30.0,30.06,NNW,331,0.0,3.0,30,0.00,,,0.00,Wunderground v.1.15,2013-06-18 12:50:00,
2013-06-18 06:00:00,62.9,30.1,30.06,NNW,331,0.0,3.0,29,0.00,,,0.00,Wunderground v.1.15,2013-06-18 13:00:00,
2013-06-18 06:05:00,63.2,30.4,30.06,NNW,331,0.0,3.0,29,0.00,,,0.00,Wunderground v.1.15,2013-06-18 13:05:00,
2013-06-18 06:15:00,63.9,31.0,30.06,NNW,331,0.0,3.0,29,0.00,,,0.00,Wunderground v.1.15,2013-06-18 13:15:00,
2013-06-18 06:20:00,64.2,31.3,30.06,NNW,331,0.0,3.0,29,0.00,,,0.00,Wunderground v.1.15,2013-06-18 13:20:00,
2013-06-18 06:30:00,64.9,31.9,30.05,NNW,331,0.0,3.0,29,0.00,,,0.00,Wunderground v.1.15,2013-06-18 13:30:00,
2013-06-18 06:35:00,65.0,31.9,30.05,NNW,331,0.0,3.0,29,0.00,,,0.00,Wunderground v.1.15,2013-06-18 13:35:00,
2013-06-18 06:40:00,65.6,32.5,30.05,NNW,331,0.0,0.0,29,0.00,,,0.00,Wunderground v.1.15,2013-06-18 13:40:00,
2013-06-18 06:45:00,66.4,32.3,30.05,NNW,331,0.0,0.0,28,0.00,,,0.00,Wunderground v.1.15,2013-06-18 13:45:00,
2013-06-18 06:50:00,67.3,32.1,30.06,NNW,331,0.0,0.0,27,0.00,,,0.00,Wunderground v.1.15,2013-06-18 13:50:00,
2013-06-18 07:00:00,68.6,33.3,30.06,NNW,331,0.0,0.0,27,0.00,,,0.00,Wunderground v.1.15,2013-06-18 14:00:00,
2013-06-18 07:05:00,69.1,32.7,30.05,NNW,331,0.0,0.0,26,0.00,,,0.00,Wunderground v.1.15,2013-06-18 14:05:00,
2013-06-18 07:10:00,69.6,33.2,30.05,NNW,331,0.0,0.0,26,0.00,,,0.00,Wunderground v.1.15,2013-06-18 14:10:00,
2013-06-18 07:15:00,70.0,34.5,30.05,NNW,331,0.0,0.0,27,0.00,,,0.00,Wunderground v.1.15,2013-06-18 14:15:00,
2013-06-18 07:20:00,70.5,33.9,30.05,NNW,331,0.0,0.0,26,0.00,,,0.00,Wunderground v.1.15,2013-06-18 14:20:00,
2013-06-18 07:30:00,71.9,35.1,30.05,NNE,19,0.0,3.0,26,0.00,,,0.00,Wunderground v.1.15,2013-06-18 14:30:00,
2013-06-18 07:35:00,72.2,34.4,30.05,NNE,29,1.0,4.0,25,0.00,,,0.00,Wunderground v.1.15,2013-06-18 14:35:00,
2013-06-18 07:40:00,72.2,34.4,30.06,NNE,29,1.0,1.0,25,0.00,,,0.00,Wunderground v.1.15,2013-06-18 14:40:00,
2013-06-18 07:50:00,73.4,34.4,30.06,NNE,29,0.0,4.0,24,0.00,,,0.00,Wunderground v.1.15,2013-06-18 14:50:00,
2013-06-18 07:55:00,74.2,32.9,30.06,NNE,29,0.0,4.0,22,0.00,,,0.00,Wunderground v.1.15,2013-06-18 14:55:00,
2013-06-18 08:00:00,74.9,33.5,30.06,NNE,29,0.0,4.0,22,0.00,,,0.00,Wunderground v.1.15,2013-06-18 15:00:00,
2013-06-18 08:10:00,75.7,33.0,30.06,NNE,29,0.0,3.0,21,0.00,,,0.00,Wunderground v.1.15,2013-06-18 15:10:00,
2013-06-18 08:15:00,76.3,33.5,30.06,East,84,1.0,3.0,21,0.00,,,0.00,Wunderground v.1.15,2013-06-18 15:15:00,
2013-06-18 08:20:00,76.6,29.9,30.06,East,99,2.0,2.0,18,0.00,,,0.00,Wunderground v.1.15,2013-06-18 15:20:00,
2013-06-18 08:30:00,78.4,26.9,30.06,ESE,109,1.0,1.0,15,0.00,,,0.00,Wunderground v.1.15,2013-06-18 15:30:00,
2013-06-18 08:35:00,79.1,27.5,30.06,ESE,109,0.0,5.0,15,0.00,,,0.00,Wunderground v.1.15,2013-06-18 15:35:00,
2013-06-18 08:45:00,80.3,21.0,30.07,NW,304,3.0,8.0,11,0.00,,,0.00,Wunderground v.1.15,2013-06-18 15:45:00,
2013-06-18 08:50:00,80.6,21.2,30.06,NNW,337,5.0,5.0,11,0.00,,,0.00,Wunderground v.1.15,2013-06-18 15:50:00,
2013-06-18 08:55:00,80.7,21.3,30.06,NW,321,5.0,5.0,11,0.00,,,0.00,Wunderground v.1.15,2013-06-18 15:55:00,
2013-06-18 09:00:00,80.9,19.2,30.07,NW,319,5.0,11.0,10,0.00,,,0.00,Wunderground v.1.15,2013-06-18 16:00:00,
2013-06-18 09:05:00,80.6,21.2,30.07,NW,306,6.0,12.0,11,0.00,,,0.00,Wunderground v.1.15,2013-06-18 16:05:00,
2013-06-18 09:15:00,80.8,21.3,30.07,NW,311,7.0,12.0,11,0.00,,,0.00,Wunderground v.1.15,2013-06-18 16:15:00,
2013-06-18 09:20:00,80.8,21.3,30.07,NW,309,7.0,7.0,11,0.00,,,0.00,Wunderground v.1.15,2013-06-18 16:20:00,
2013-06-18 09:30:00,81.0,23.6,30.07,NW,323,5.0,12.0,12,0.00,,,0.00,Wunderground v.1.15,2013-06-18 16:30:00,
2013-06-18 09:35:00,81.3,21.7,30.07,NNW,343,5.0,16.0,11,0.00,,,0.00,Wunderground v.1.15,2013-06-18 16:35:00,
2013-06-18 09:40:00,81.2,21.7,30.07,WNW,296,7.0,7.0,11,0.00,,,0.00,Wunderground v.1.15,2013-06-18 16:40:00,
2013-06-18 09:50:00,81.6,22.0,30.06,NW,308,5.0,16.0,11,0.00,,,0.00,Wunderground v.1.15,2013-06-18 16:50:00,
2013-06-18 09:55:00,81.3,21.7,30.06,WNW,294,5.0,16.0,11,0.00,,,0.00,Wunderground v.1.15,2013-06-18 16:55:00,
2013-06-18 10:00:00,81.4,21.8,30.06,North,352,6.0,16.0,11,0.00,,,0.00,Wunderground v.1.15,2013-06-18 17:00:00,
2013-06-18 10:05:00,81.5,21.9,30.06,NNW,335,7.0,16.0,11,0.00,,,0.00,Wunderground v.1.15,2013-06-18 17:05:00,
2013-06-18 10:15:00,81.8,22.1,30.07,NW,321,6.0,16.0,11,0.00,,,0.00,Wunderground v.1.15,2013-06-18 17:15:00,
2013-06-18 10:20:00,82.0,20.0,30.06,NW,311,6.0,16.0,10,0.00,,,0.00,Wunderground v.1.15,2013-06-18 17:20:00,
2013-06-18 10:30:00,81.9,22.2,30.07,NW,312,8.0,8.0,11,0.00,,,0.00,Wunderground v.1.15,2013-06-18 17:30:00,
2013-06-18 10:35:00,82.0,20.0,30.06,NNW,327,8.0,10.0,10,0.00,,,0.00,Wunderground v.1.15,2013-06-18 17:35:00,
2013-06-18 10:45:00,82.9,20.7,30.06,NNW,344,4.0,16.0,10,0.00,,,0.00,Wunderground v.1.15,2013-06-18 17:45:00,
2013-06-18 10:50:00,83.0,18.3,30.06,NW,319,4.0,16.0,9,0.00,,,0.00,Wunderground v.1.15,2013-06-18 17:50:00,
2013-06-18 10:55:00,82.9,18.2,30.07,NW,318,6.0,16.0,9,0.00,,,0.00,Wunderground v.1.15,2013-06-18 17:55:00,
2013-06-18 11:00:00,83.1,18.4,30.06,NW,308,7.0,16.0,9,0.00,,,0.00,Wunderground v.1.15,2013-06-18 18:00:00,
2013-06-18 11:10:00,83.8,16.2,30.07,West,265,6.0,17.0,8,0.00,,,0.00,Wunderground v.1.15,2013-06-18 18:10:00,
2013-06-18 11:15:00,84.0,16.3,30.06,WNW,291,6.0,17.0,8,0.00,,,0.00,Wunderground v.1.15,2013-06-18 18:15:00,
2013-06-18 11:20:00,84.5,19.4,30.06,WNW,298,5.0,5.0,9,0.00,,,0.00,Wunderground v.1.15,2013-06-18 18:20:00,
2013-06-18 11:30:00,84.6,19.5,30.05,WNW,287,8.0,17.0,9,0.00,,,0.00,Wunderground v.1.15,2013-06-18 18:30:00,
2013-06-18 11:35:00,84.7,19.6,30.06,WNW,294,10.0,22.0,9,0.00,,,0.00,Wunderground v.1.15,2013-06-18 18:35:00,
2013-06-18 11:45:00,85.6,17.5,30.06,WNW,298,10.0,22.0,8,0.00,,,0.00,Wunderground v.1.15,2013-06-18 18:45:00,
2013-06-18 11:50:00,85.8,14.6,30.06,NW,304,11.0,22.0,7,0.00,,,0.00,Wunderground v.1.15,2013-06-18 18:50:00,
2013-06-18 12:00:00,85.0,22.3,30.05,NW,311,11.0,22.0,10,0.00,,,0.00,Wunderground v.1.15,2013-06-18 19:00:00,
2013-06-18 12:05:00,84.5,21.9,30.05,NNW,331,11.0,25.0,10,0.00,,,0.00,Wunderground v.1.15,2013-06-18 19:05:00,
2013-06-18 12:15:00,84.6,22.0,30.05,NW,304,14.0,25.0,10,0.00,,,0.00,Wunderground v.1.15,2013-06-18 19:15:00,
2013-06-18 12:20:00,84.7,19.6,30.05,NW,308,13.0,25.0,9,0.00,,,0.00,Wunderground v.1.15,2013-06-18 19:20:00,
2013-06-18 12:30:00,85.6,17.5,30.04,NW,318,14.0,14.0,8,0.00,,,0.00,Wunderground v.1.15,2013-06-18 19:30:00,
2013-06-18 12:35:00,85.7,17.6,30.05,WNW,294,13.0,28.0,8,0.00,,,0.00,Wunderground v.1.15,2013-06-18 19:35:00,
2013-06-18 12:40:00,86.1,20.6,30.04,NNW,334,13.0,28.0,9,0.00,,,0.00,Wunderground v.1.15,2013-06-18 19:40:00,
2013-06-18 12:45:00,86.0,20.6,30.04,NW,318,12.0,28.0,9,0.00,,,0.00,Wunderground v.1.15,2013-06-18 19:45:00,
2013-06-18 12:50:00,85.4,17.4,30.04,WNW,285,14.0,28.0,8,0.00,,,0.00,Wunderground v.1.15,2013-06-18 19:50:00,
2013-06-18 13:00:00,85.2,22.5,30.04,WNW,288,15.0,15.0,10,0.00,,,0.00,Wunderground v.1.15,2013-06-18 20:00:00,
2013-06-18 13:05:00,85.7,20.3,30.04,NNW,328,15.0,24.0,9,0.00,,,0.00,Wunderground v.1.15,2013-06-18 20:05:00,
2013-06-18 13:15:00,85.7,20.3,30.04,NW,305,14.0,29.0,9,0.00,,,0.00,Wunderground v.1.15,2013-06-18 20:15:00,
2013-06-18 13:20:00,85.7,25.1,30.04,NW,323,15.0,29.0,11,0.00,,,0.00,Wunderground v.1.15,2013-06-18 20:20:00,
2013-06-18 13:25:00,85.5,22.7,30.04,West,264,16.0,29.0,10,0.00,,,0.00,Wunderground v.1.15,2013-06-18 20:25:00,
2013-06-18 13:35:00,85.7,25.1,30.04,NW,306,15.0,29.0,11,0.00,,,0.00,Wunderground v.1.15,2013-06-18 20:35:00,
2013-06-18 13:40:00,85.3,24.8,30.03,NW,317,15.0,29.0,11,0.00,,,0.00,Wunderground v.1.15,2013-06-18 20:40:00,
2013-06-18 13:50:00,86.1,25.4,30.04,WNW,289,15.0,15.0,11,0.00,,,0.00,Wunderground v.1.15,2013-06-18 20:50:00,
2013-06-18 14:00:00,85.8,25.2,30.03,NW,320,16.0,29.0,11,0.00,,,0.00,Wunderground v.1.15,2013-06-18 21:00:00,
2013-06-18 14:05:00,86.0,27.5,30.03,WNW,296,16.0,29.0,12,0.00,,,0.00,Wunderground v.1.15,2013-06-18 21:05:00,
2013-06-18 14:15:00,86.1,29.5,30.03,WNW,298,14.0,26.0,13,0.00,,,0.00,Wunderground v.1.15,2013-06-18 21:15:00,
2013-06-18 14:20:00,85.7,25.1,30.03,NW,307,16.0,16.0,11,0.00,,,0.00,Wunderground v.1.15,2013-06-18 21:20:00,
2013-06-18 14:30:00,86.2,27.6,30.03,NW,316,15.0,15.0,12,0.00,,,0.00,Wunderground v.1.15,2013-06-18 21:30:00,
2013-06-18 14:35:00,86.8,26.0,30.03,NNW,330,14.0,17.0,11,0.00,,,0.00,Wunderground v.1.15,2013-06-18 21:35:00,
2013-06-18 14:40:00,86.5,25.7,30.03,NNW,337,14.0,14.0,11,0.00,,,0.00,Wunderground v.1.15,2013-06-18 21:40:00,
2013-06-18 14:50:00,86.4,27.8,30.03,NW,321,13.0,30.0,12,0.00,,,0.00,Wunderground v.1.15,2013-06-18 21:50:00,
2013-06-18 14:55:00,86.3,25.6,30.02,NW,312,15.0,30.0,11,0.00,,,0.00,Wunderground v.1.15,2013-06-18 21:55:00,
2013-06-18 15:00:00,86.3,25.6,30.02,NNW,327,15.0,15.0,11,0.00,,,0.00,Wunderground v.1.15,2013-06-18 22:00:00,
2013-06-18 15:05:00,86.5,27.8,30.01,NNW,329,14.0,16.0,12,0.00,,,0.00,Wunderground v.1.15,2013-06-18 22:05:00,
2013-06-18 15:15:00,87.0,26.1,30.01,NNW,333,14.0,27.0,11,0.00,,,0.00,Wunderground v.1.15,2013-06-18 22:15:00,
2013-06-18 15:20:00,87.3,26.4,30.01,WNW,296,13.0,13.0,11,0.00,,,0.00,Wunderground v.1.15,2013-06-18 22:20:00,
2013-06-18 15:30:00,87.2,28.4,30.01,WNW,300,14.0,27.0,12,0.00,,,0.00,Wunderground v.1.15,2013-06-18 22:30:00,
2013-06-18 15:35:00,87.1,30.3,30.01,WNW,287,12.0,29.0,13,0.00,,,0.00,Wunderground v.1.15,2013-06-18 22:35:00,
2013-06-18 15:45:00,86.9,30.1,30.00,NW,320,12.0,16.0,13,0.00,,,0.00,Wunderground v.1.15,2013-06-18 22:45:00,
2013-06-18 15:50:00,86.8,31.9,30.00,North,352,13.0,29.0,14,0.00,,,0.00,Wunderground v.1.15,2013-06-18 22:50:00,
2013-06-18 16:00:00,87.0,33.7,29.99,WNW,296,12.0,12.0,15,0.00,,,0.00,Wunderground v.1.15,2013-06-18 23:00:00,
2013-06-18 16:10:00,87.1,33.8,29.99,NW,323,12.0,26.0,15,0.00,,,0.00,Wunderground v.1.15,2013-06-18 23:10:00,
2013-06-18 16:15:00,86.9,33.7,29.99,NW,318,12.0,26.0,15,0.00,,,0.00,Wunderground v.1.15,2013-06-18 23:15:00,
2013-06-18 16:20:00,86.9,33.7,29.99,NW,305,13.0,26.0,15,0.00,,,0.00,Wunderground v.1.15,2013-06-18 23:20:00,
2013-06-18 16:30:00,86.9,35.3,29.98,NW,316,13.0,26.0,16,0.00,,,0.00,Wunderground v.1.15,2013-06-18 23:30:00,
2013-06-18 16:35:00,86.9,35.3,29.98,NW,313,13.0,26.0,16,0.00,,,0.00,Wunderground v.1.15,2013-06-18 23:35:00,
2013-06-18 16:40:00,86.5,36.5,29.98,WNW,296,13.0,23.0,17,0.00,,,0.00,Wunderground v.1.15,2013-06-18 23:40:00,
2013-06-18 16:45:00,86.1,36.2,29.97,WNW,302,14.0,23.0,17,0.00,,,0.00,Wunderground v.1.15,2013-06-18 23:45:00,
2013-06-18 16:50:00,86.1,34.7,29.98,WNW,302,14.0,14.0,16,0.00,,,0.00,Wunderground v.1.15,2013-06-18 23:50:00,
2013-06-18 17:00:00,85.6,34.2,29.97,NW,321,15.0,15.0,16,0.00,,,0.00,Wunderground v.1.15,2013-06-19 00:00:00,
2013-06-18 17:05:00,85.6,35.8,29.97,NW,321,14.0,19.0,17,0.00,,,0.00,Wunderground v.1.15,2013-06-19 00:05:00,
2013-06-18 17:15:00,85.4,35.6,29.97,NNW,329,14.0,28.0,17,0.00,,,0.00,Wunderground v.1.15,2013-06-19 00:15:00,
2013-06-18 17:20:00,85.3,35.5,29.97,NW,326,14.0,28.0,17,0.00,,,0.00,Wunderground v.1.15,2013-06-19 00:20:00,
2013-06-18 17:30:00,85.1,35.4,29.97,WNW,299,13.0,13.0,17,0.00,,,0.00,Wunderground v.1.15,2013-06-19 00:30:00,
2013-06-18 17:35:00,84.7,35.0,29.97,NNW,334,13.0,17.0,17,0.00,,,0.00,Wunderground v.1.15,2013-06-19 00:35:00,
2013-06-18 17:45:00,84.8,36.6,29.97,WNW,303,12.0,16.0,18,0.00,,,0.00,Wunderground v.1.15,2013-06-19 00:45:00,
2013-06-18 17:50:00,84.3,37.5,29.96,NNW,327,13.0,24.0,19,0.00,,,0.00,Wunderground v.1.15,2013-06-19 00:50:00,
2013-06-18 18:00:00,83.7,37.0,29.96,WNW,301,13.0,13.0,19,0.00,,,0.00,Wunderground v.1.15,2013-06-19 01:00:00,
2013-06-18 18:05:00,83.5,36.9,29.96,NNW,332,14.0,14.0,19,0.00,,,0.00,Wunderground v.1.15,2013-06-19 01:05:00,
2013-06-18 18:15:00,83.5,36.9,29.96,NNW,330,12.0,26.0,19,0.00,,,0.00,Wunderground v.1.15,2013-06-19 01:15:00,
2013-06-18 18:20:00,82.9,36.4,29.96,NNW,340,12.0,26.0,19,0.00,,,0.00,Wunderground v.1.15,2013-06-19 01:20:00,
2013-06-18 18:25:00,82.3,37.2,29.96,NNW,332,14.0,26.0,20,0.00,,,0.00,Wunderground v.1.15,2013-06-19 01:25:00,
2013-06-18 18:30:00,82.0,38.2,29.96,NW,318,13.0,26.0,21,0.00,,,0.00,Wunderground v.1.15,2013-06-19 01:30:00,
2013-06-18 18:40:00,81.2,38.7,29.96,NNW,332,14.0,29.0,22,0.00,,,0.00,Wunderground v.1.15,2013-06-19 01:40:00,
2013-06-18 18:45:00,81.3,38.8,29.96,NNW,337,13.0,29.0,22,0.00,,,0.00,Wunderground v.1.15,2013-06-19 01:45:00,
2013-06-18 18:50:00,80.9,39.6,29.96,NW,312,11.0,11.0,23,0.00,,,0.00,Wunderground v.1.15,2013-06-19 01:50:00,
2013-06-18 19:00:00,79.7,40.8,29.97,NNW,330,14.0,29.0,25,0.00,,,0.00,Wunderground v.1.15,2013-06-19 02:00:00,
2013-06-18 19:05:00,79.6,41.7,29.97,NW,321,13.0,29.0,26,0.00,,,0.00,Wunderground v.1.15,2013-06-19 02:05:00,
2013-06-18 19:15:00,78.5,41.7,29.96,NNW,329,14.0,25.0,27,0.00,,,0.00,Wunderground v.1.15,2013-06-19 02:15:00,
2013-06-18 19:20:00,77.9,41.2,29.96,NNW,339,14.0,14.0,27,0.00,,,0.00,Wunderground v.1.15,2013-06-19 02:20:00,
2013-06-18 19:30:00,77.4,40.8,29.95,WNW,290,15.0,15.0,27,0.00,,,0.00,Wunderground v.1.15,2013-06-19 02:30:00,
2013-06-18 19:35:00,77.3,40.7,29.96,NW,325,14.0,21.0,27,0.00,,,0.00,Wunderground v.1.15,2013-06-19 02:35:00,
2013-06-18 19:40:00,76.8,41.2,29.95,NW,308,14.0,27.0,28,0.00,,,0.00,Wunderground v.1.15,2013-06-19 02:40:00,
2013-06-18 19:45:00,76.7,40.2,29.95,NW,304,15.0,27.0,27,0.00,,,0.00,Wunderground v.1.15,2013-06-19 02:45:00,
2013-06-18 19:50:00,76.5,39.0,29.95,NW,318,14.0,27.0,26,0.00,,,0.00,Wunderground v.1.15,2013-06-19 02:50:00,
2013-06-18 20:00:00,75.8,40.4,29.95,NW,314,14.0,27.0,28,0.00,,,0.00,Wunderground v.1.15,2013-06-19 03:00:00,
2013-06-18 20:05:00,75.5,40.1,29.95,WNW,298,14.0,27.0,28,0.00,,,0.00,Wunderground v.1.15,2013-06-19 03:05:00,
2013-06-18 20:15:00,74.8,40.4,29.96,North,356,9.0,24.0,29,0.00,,,0.00,Wunderground v.1.15,2013-06-19 03:15:00,
2013-06-18 20:20:00,74.6,39.3,29.96,NNW,335,7.0,24.0,28,0.00,,,0.00,Wunderground v.1.15,2013-06-19 03:20:00,
2013-06-18 20:30:00,74.8,37.6,29.96,NNW,336,7.0,7.0,26,0.00,,,0.00,Wunderground v.1.15,2013-06-19 03:30:00,
2013-06-18 20:40:00,74.4,38.2,29.96,NNE,32,4.0,4.0,27,0.00,,,0.00,Wunderground v.1.15,2013-06-19 03:40:00,
2013-06-18 20:45:00,74.2,38.1,29.96,NE,44,4.0,8.0,27,0.00,,,0.00,Wunderground v.1.15,2013-06-19 03:45:00,
2013-06-18 20:50:00,74.3,37.2,29.97,NNE,27,4.0,20.0,26,0.00,,,0.00,Wunderground v.1.15,2013-06-19 03:50:00,
2013-06-18 21:00:00,73.9,36.8,29.97,NNE,29,5.0,20.0,26,0.00,,,0.00,Wunderground v.1.15,2013-06-19 04:00:00,
2013-06-18 21:05:00,73.7,37.6,29.98,NE,44,6.0,20.0,27,0.00,,,0.00,Wunderground v.1.15,2013-06-19 04:05:00,
2013-06-18 21:10:00,73.6,35.6,29.97,NNW,341,6.0,13.0,25,0.00,,,0.00,Wunderground v.1.15,2013-06-19 04:10:00,
2013-06-18 21:15:00,74.0,31.6,29.97,WNW,289,8.0,13.0,21,0.00,,,0.00,Wunderground v.1.15,2013-06-19 04:15:00,
2013-06-18 21:25:00,74.5,30.8,29.97,NW,306,9.0,18.0,20,0.00,,,0.00,Wunderground v.1.15,2013-06-19 04:25:00,
2013-06-18 21:30:00,74.7,29.7,29.97,NNW,343,11.0,13.0,19,0.00,,,0.00,Wunderground v.1.15,2013-06-19 04:30:00,
2013-06-18 21:35:00,75.0,27.2,29.97,NW,323,13.0,20.0,17,0.00,,,0.00,Wunderground v.1.15,2013-06-19 04:35:00,
2013-06-18 21:45:00,75.3,26.0,29.97,NNW,333,12.0,20.0,16,0.00,,,0.00,Wunderground v.1.15,2013-06-19 04:45:00,
2013-06-18 21:50:00,75.2,25.9,29.98,NW,319,10.0,20.0,16,0.00,,,0.00,Wunderground v.1.15,2013-06-19 04:50:00,
2013-06-18 21:55:00,75.0,25.7,29.98,WNW,282,9.0,20.0,16,0.00,,,0.00,Wunderground v.1.15,2013-06-19 04:55:00,
2013-06-18 22:00:00,74.8,25.6,29.98,WNW,294,10.0,10.0,16,0.00,,,0.00,Wunderground v.1.15,2013-06-19 05:00:00,
2013-06-18 22:10:00,74.5,23.8,29.98,NW,316,8.0,8.0,15,0.00,,,0.00,Wunderground v.1.15,2013-06-19 05:10:00,
2013-06-18 22:15:00,74.5,22.1,29.98,NNW,330,9.0,13.0,14,0.00,,,0.00,Wunderground v.1.15,2013-06-19 05:15:00,
2013-06-18 22:20:00,74.5,23.8,29.98,NW,308,11.0,21.0,15,0.00,,,0.00,Wunderground v.1.15,2013-06-19 05:20:00,
2013-06-18 22:30:00,74.1,21.8,29.98,NNW,331,9.0,9.0,14,0.00,,,0.00,Wunderground v.1.15,2013-06-19 05:30:00,
2013-06-18 22:35:00,73.9,21.7,29.98,NNE,12,7.0,23.0,14,0.00,,,0.00,Wunderground v.1.15,2013-06-19 05:35:00,
2013-06-18 22:40:00,73.6,23.1,29.98,NNE,24,4.0,4.0,15,0.00,,,0.00,Wunderground v.1.15,2013-06-19 05:40:00,
2013-06-18 22:50:00,73.7,19.8,29.98,NNW,341,3.0,23.0,13,0.00,,,0.00,Wunderground v.1.15,2013-06-19 05:50:00,
2013-06-18 23:00:00,74.2,18.3,29.98,North,4,5.0,5.0,12,0.00,,,0.00,Wunderground v.1.15,2013-06-19 06:00:00,
2013-06-18 23:05:00,73.5,19.6,29.98,NNW,333,5.0,14.0,13,0.00,,,0.00,Wunderground v.1.15,2013-06-19 06:05:00,
2013-06-18 23:15:00,73.1,21.0,29.97,NW,312,8.0,14.0,14,0.00,,,0.00,Wunderground v.1.15,2013-06-19 06:15:00,
2013-06-18 23:20:00,72.8,19.0,29.98,NW,317,8.0,14.0,13,0.00,,,0.00,Wunderground v.1.15,2013-06-19 06:20:00,
2013-06-18 23:30:00,72.8,19.0,29.97,NNW,335,8.0,14.0,13,0.00,,,0.00,Wunderground v.1.15,2013-06-19 06:30:00,
2013-06-18 23:35:00,72.8,19.0,29.97,NNW,339,8.0,17.0,13,0.00,,,0.00,Wunderground v.1.15,2013-06-19 06:35:00,
2013-06-18 23:40:00,72.6,18.9,29.97,NW,323,8.0,8.0,13,0.00,,,0.00,Wunderground v.1.15,2013-06-19 06:40:00,
2013-06-18 23:45:00,72.7,19.0,29.97,NW,321,8.0,17.0,13,0.00,,,0.00,Wunderground v.1.15,2013-06-19 06:45:00,
2013-06-18 23:50:00,72.5,18.8,29.97,NW,311,8.0,17.0,13,0.00,,,0.00,Wunderground v.1.15,2013-06-19 06:50:00,